Thomaston, New York
Current Conditions -  °F | °C
As of 8:51 AM on Monday 24 Nov 2014 (Local Time) from KLGA Reporting Station
Overcast Overcast  
Wind Chill: 16°   Ceiling: 600
Heat Index: 16°   Visibility: 9mi
Dew Point: 14°   Wind: 10mph
Humidity: 93%   Direction: 160°SSE
Pressure: 29.69"   Gusts: NA
Location:  40.786°N, 73.7291°W
Report Text: KLGA 241351Z 16009KT 9SM OVC006 16/14 A2969 RMK AO2 PK WND 17026/1255 RAE02 SLP054 P0000 T01560144
Loading
Personal Weather Stations






























Interactive Weather Map New forecast layout! Learn more

10-Day Weather Forecast

Advertisements
Track Severe Weather on mobile